createdAt,value
2022-11-14T00:01:14.891Z,101917.94
2022-11-14T00:03:42.795Z,101916.94
2022-11-14T00:06:10.883Z,101914.31
2022-11-14T00:08:38.799Z,101922.56
2022-11-14T00:11:07.041Z,101917.31
2022-11-14T00:13:34.976Z,101918.78
2022-11-14T00:16:04.389Z,101918.47
2022-11-14T00:18:32.635Z,101913.47
2022-11-14T00:21:00.775Z,101927.94
2022-11-14T00:23:28.689Z,101917.63
2022-11-14T00:25:57.192Z,101925.97
2022-11-14T00:28:25.125Z,101924.09
2022-11-14T00:30:53.033Z,101924.91
2022-11-14T00:33:22.431Z,101915.44
2022-11-14T00:35:54.940Z,101914.50
2022-11-14T00:38:23.684Z,101924.44
2022-11-14T00:40:51.684Z,101913.00
2022-11-14T00:43:19.621Z,101915.44
2022-11-14T00:45:48.681Z,101907.72
2022-11-14T00:48:18.489Z,101911.00
2022-11-14T00:50:47.809Z,101900.91
2022-11-14T00:53:15.912Z,101907.47
2022-11-14T00:55:44.141Z,101909.41
2022-11-14T00:58:12.108Z,101915.28
2022-11-14T01:00:40.241Z,101911.72
2022-11-14T01:03:08.230Z,101907.50
2022-11-14T01:05:41.133Z,101899.22
2022-11-14T01:08:10.749Z,101904.00
2022-11-14T01:10:41.901Z,101899.69
2022-11-14T01:13:09.860Z,101905.59
2022-11-14T01:15:40.751Z,101903.00
2022-11-14T01:18:08.999Z,101888.16
2022-11-14T01:20:39.256Z,101886.94
2022-11-14T01:23:07.260Z,101893.78
2022-11-14T01:25:37.191Z,101889.41
2022-11-14T01:28:07.687Z,101884.25
2022-11-14T01:30:36.264Z,101885.94
2022-11-14T01:33:04.338Z,101884.00
2022-11-14T01:35:32.853Z,101875.34
2022-11-14T01:38:00.853Z,101883.28
2022-11-14T01:40:29.558Z,101888.19
2022-11-14T01:43:27.696Z,101887.19
2022-11-14T01:45:59.070Z,101879.28
2022-11-14T01:48:33.023Z,101883.47
2022-11-14T01:51:05.028Z,101879.09
2022-11-14T01:53:33.726Z,101875.06
2022-11-14T01:56:05.880Z,101873.38
2022-11-14T01:58:37.107Z,101878.28
2022-11-14T02:01:05.427Z,101872.22
2022-11-14T02:03:37.069Z,101876.34
2022-11-14T02:06:07.655Z,101874.69
2022-11-14T02:08:36.768Z,101869.41
2022-11-14T02:11:04.721Z,101872.75
2022-11-14T02:13:32.710Z,101869.25
2022-11-14T02:16:02.171Z,101873.44
2022-11-14T02:18:30.256Z,101853.88
2022-11-14T02:20:59.692Z,101862.13
2022-11-14T02:23:28.654Z,101875.16
2022-11-14T02:25:57.015Z,101873.34
2022-11-14T02:28:25.138Z,101875.03
2022-11-14T02:30:53.085Z,101862.91
2022-11-14T02:33:21.030Z,101866.25
2022-11-14T02:35:48.957Z,101856.78
2022-11-14T02:38:18.591Z,101863.63
2022-11-14T02:40:46.500Z,101866.09
2022-11-14T02:43:14.419Z,101866.94
2022-11-14T02:45:42.365Z,101865.97
2022-11-14T02:48:10.319Z,101853.78
2022-11-14T02:50:38.327Z,101859.69
2022-11-14T02:53:06.283Z,101860.47
2022-11-14T02:55:35.587Z,101860.41
2022-11-14T02:58:03.536Z,101868.19
2022-11-14T03:00:31.582Z,101856.03
2022-11-14T03:02:59.579Z,101862.97
2022-11-14T03:05:27.523Z,101866.41
2022-11-14T03:07:55.821Z,101864.59
2022-11-14T03:10:24.805Z,101862.81
2022-11-14T03:12:56.339Z,101864.44
2022-11-14T03:15:24.835Z,101868.72
2022-11-14T03:17:53.009Z,101867.94
2022-11-14T03:20:21.812Z,101867.34
2022-11-14T03:22:49.713Z,101865.34
2022-11-14T03:25:17.694Z,101866.88
2022-11-14T03:27:45.617Z,101875.38
2022-11-14T03:30:15.697Z,101874.44
2022-11-14T03:32:43.788Z,101870.94
2022-11-14T03:35:12.283Z,101867.56
2022-11-14T03:37:40.268Z,101872.69
2022-11-14T03:40:09.827Z,101862.47
2022-11-14T03:42:37.742Z,101873.38
2022-11-14T03:45:06.541Z,101874.38
2022-11-14T03:47:35.837Z,101868.47
2022-11-14T03:50:03.781Z,101873.47
2022-11-14T03:52:31.733Z,101870.81
2022-11-14T03:54:59.656Z,101869.00
2022-11-14T03:57:27.567Z,101865.41
2022-11-14T03:59:55.460Z,101869.81
2022-11-14T04:02:23.394Z,101869.69
2022-11-14T04:04:52.688Z,101869.53
2022-11-14T04:07:20.689Z,101862.53
2022-11-14T04:09:48.701Z,101852.16
2022-11-14T04:12:16.592Z,101858.25
2022-11-14T04:14:44.539Z,101856.50
2022-11-14T04:17:12.581Z,101856.38
2022-11-14T04:19:40.528Z,101853.69
2022-11-14T04:22:09.861Z,101857.22
2022-11-14T04:24:37.789Z,101859.03
2022-11-14T04:27:05.694Z,101857.66
2022-11-14T04:29:33.619Z,101871.19
2022-11-14T04:32:01.533Z,101865.34
2022-11-14T04:34:29.448Z,101873.84
2022-11-14T04:36:57.341Z,101874.47
2022-11-14T04:39:26.668Z,101877.78
2022-11-14T04:41:54.574Z,101877.72
2022-11-14T04:44:22.528Z,101888.16
2022-11-14T04:46:50.450Z,101889.00
2022-11-14T04:49:18.406Z,101881.19
2022-11-14T04:51:46.337Z,101887.38
2022-11-14T04:54:14.275Z,101882.28
2022-11-14T04:56:43.664Z,101886.53
2022-11-14T04:59:13.073Z,101884.88
2022-11-14T05:01:42.687Z,101893.50
2022-11-14T05:04:10.656Z,101890.25
2022-11-14T05:06:38.578Z,101886.66
2022-11-14T05:09:06.553Z,101896.44
2022-11-14T05:11:34.488Z,101900.00
2022-11-14T05:14:03.824Z,101876.13
2022-11-14T05:16:31.756Z,101896.44
2022-11-14T05:18:59.688Z,101895.31
2022-11-14T05:21:27.629Z,101910.50
2022-11-14T05:23:55.562Z,101900.88
2022-11-14T05:26:23.483Z,101905.94
2022-11-14T05:28:51.426Z,101903.31
2022-11-14T05:31:20.729Z,101902.63
2022-11-14T05:33:48.656Z,101908.53
2022-11-14T05:36:17.966Z,101898.34
2022-11-14T05:38:45.880Z,101904.41
2022-11-14T05:41:15.246Z,101908.63
2022-11-14T05:43:43.253Z,101913.69
2022-11-14T05:46:13.104Z,101917.94
2022-11-14T05:48:42.703Z,101919.41
2022-11-14T05:51:13.171Z,101929.13
2022-11-14T05:53:42.009Z,101925.91
2022-11-14T05:56:12.240Z,101932.78
2022-11-14T05:58:40.833Z,101932.94
2022-11-14T06:01:10.996Z,101926.44
2022-11-14T06:03:40.814Z,101934.53
2022-11-14T06:06:12.085Z,101935.84
2022-11-14T06:08:40.324Z,101941.22
2022-11-14T06:11:10.170Z,101942.19
2022-11-14T06:13:38.242Z,101944.47
2022-11-14T06:16:08.458Z,101936.09
2022-11-14T06:18:36.967Z,101938.63
2022-11-14T06:21:07.573Z,101942.94
2022-11-14T06:23:37.036Z,101928.31
2022-11-14T06:26:06.744Z,101946.16
2022-11-14T06:28:35.568Z,101954.72
2022-11-14T06:31:05.998Z,101939.44
2022-11-14T06:33:37.234Z,101947.84
2022-11-14T06:36:07.353Z,101945.34
2022-11-14T06:38:38.285Z,101947.19
2022-11-14T06:41:07.399Z,101928.75
2022-11-14T06:43:35.623Z,101956.59
2022-11-14T06:46:04.561Z,101956.09
2022-11-14T06:48:32.924Z,101955.16
2022-11-14T06:51:02.078Z,101955.03
2022-11-14T06:53:32.498Z,101950.31
2022-11-14T06:56:03.333Z,101946.50
2022-11-14T06:58:33.437Z,101954.13
2022-11-14T07:01:06.097Z,101951.75
2022-11-14T07:03:34.931Z,101947.47
2022-11-14T07:06:03.596Z,101942.56
2022-11-14T07:08:32.485Z,101939.13
2022-11-14T07:11:05.820Z,101934.38
2022-11-14T07:13:34.448Z,101936.84
2022-11-14T07:16:03.184Z,101922.91
2022-11-14T07:18:32.376Z,101938.25
2022-11-14T07:21:01.477Z,101941.19
2022-11-14T07:23:30.283Z,101928.22
2022-11-14T07:26:03.150Z,101919.50
2022-11-14T07:28:33.107Z,101928.75
2022-11-14T07:31:03.933Z,101930.53
2022-11-14T07:33:32.905Z,101918.75
2022-11-14T07:36:00.996Z,101932.81
2022-11-14T07:38:29.240Z,101935.06
2022-11-14T07:40:59.979Z,101929.28
2022-11-14T07:43:28.708Z,101920.53
2022-11-14T07:46:01.599Z,101921.13
2022-11-14T07:48:30.219Z,101922.53
2022-11-14T07:51:00.857Z,101928.19
2022-11-14T07:53:29.477Z,101919.28
2022-11-14T07:55:57.679Z,101920.97
2022-11-14T07:58:25.828Z,101927.13
2022-11-14T08:00:53.823Z,101912.03
2022-11-14T08:03:23.201Z,101919.69
2022-11-14T08:05:51.123Z,101934.31
2022-11-14T08:08:19.066Z,101925.06
2022-11-14T08:10:46.994Z,101933.41
2022-11-14T08:13:31.528Z,101933.28
2022-11-14T08:16:01.113Z,101933.03
2022-11-14T08:18:30.871Z,101937.34
2022-11-14T08:20:59.295Z,101934.19
2022-11-14T08:23:27.229Z,101932.22
2022-11-14T08:25:55.150Z,101934.47
2022-11-14T08:28:23.096Z,101942.06
2022-11-14T08:30:51.004Z,101941.13
2022-11-14T08:33:18.933Z,101946.03
2022-11-14T08:35:48.371Z,101942.47
2022-11-14T08:38:16.307Z,101932.22
2022-11-14T08:40:44.270Z,101937.81
2022-11-14T08:43:12.240Z,101930.09
2022-11-14T08:45:40.188Z,101931.78
2022-11-14T08:48:08.173Z,101931.44
2022-11-14T08:50:36.077Z,101896.09
2022-11-14T08:53:05.339Z,101931.97
2022-11-14T08:55:33.196Z,101924.22
2022-11-14T08:58:01.088Z,101912.78
2022-11-14T09:00:28.942Z,101914.41
2022-11-14T09:02:56.899Z,101908.41
2022-11-14T09:05:24.805Z,101909.13
2022-11-14T09:07:52.687Z,101912.19
2022-11-14T09:10:21.971Z,101906.38
2022-11-14T09:12:56.602Z,101896.59
2022-11-14T09:15:24.519Z,101898.47
2022-11-14T09:17:54.529Z,101907.81
2022-11-14T09:20:24.855Z,101895.47
2022-11-14T09:22:59.440Z,101898.44
2022-11-14T09:25:29.199Z,101899.38
2022-11-14T09:27:58.320Z,101887.72
2022-11-14T09:30:26.310Z,101887.09
2022-11-14T09:32:54.174Z,101875.78
2022-11-14T09:35:22.032Z,101883.28
2022-11-14T09:37:49.899Z,101873.34
2022-11-14T09:40:18.093Z,101866.56
2022-11-14T09:43:05.497Z,101864.75
2022-11-14T09:45:37.911Z,101857.31
2022-11-14T09:48:11.409Z,101851.41
2022-11-14T09:50:45.000Z,101859.66
2022-11-14T09:53:18.870Z,101850.09
2022-11-14T09:55:46.769Z,101853.03
2022-11-14T09:58:20.526Z,101848.22
2022-11-14T10:00:53.020Z,101848.72
2022-11-14T10:03:31.059Z,101838.94
2022-11-14T10:06:18.891Z,101845.44
2022-11-14T10:09:00.280Z,101843.69
2022-11-14T10:11:36.294Z,101837.72
2022-11-14T10:14:39.939Z,101834.31
2022-11-14T10:17:22.997Z,101837.50
2022-11-14T10:20:01.066Z,101832.03
2022-11-14T10:22:46.717Z,101823.69
2022-11-14T10:25:39.568Z,101820.00
2022-11-14T10:28:25.480Z,101817.19
2022-11-14T10:31:06.147Z,101813.91
2022-11-14T10:33:43.594Z,101819.44
2022-11-14T10:36:18.813Z,101813.81
2022-11-14T10:38:53.716Z,101818.19
2022-11-14T10:41:49.769Z,101807.91
2022-11-14T10:44:16.634Z,101806.19
2022-11-14T10:46:51.212Z,101809.84
2022-11-14T10:49:21.956Z,101805.09
2022-11-14T10:51:53.976Z,101801.47
2022-11-14T10:54:28.585Z,101792.75
2022-11-14T10:56:57.240Z,101794.53
2022-11-14T10:59:27.764Z,101790.88
2022-11-14T11:01:58.687Z,101791.03
2022-11-14T11:04:29.092Z,101762.16
2022-11-14T11:06:58.677Z,101792.47
2022-11-14T11:09:46.690Z,101779.50
2022-11-14T11:12:18.720Z,101782.50
2022-11-14T11:14:48.341Z,101784.50
2022-11-14T11:17:22.928Z,101770.44
2022-11-14T11:19:50.855Z,101781.63
2022-11-14T11:22:31.762Z,101782.38
2022-11-14T11:24:59.626Z,101773.16
2022-11-14T11:27:29.487Z,101780.56
2022-11-14T11:30:10.687Z,101771.59
2022-11-14T11:32:39.998Z,101777.19
2022-11-14T11:35:13.799Z,101768.88
2022-11-14T11:37:45.583Z,101774.31
2022-11-14T11:40:20.617Z,101768.94
2022-11-14T11:43:36.675Z,101767.25
2022-11-14T11:45:42.902Z,101766.75
2022-11-14T11:48:19.799Z,101759.41
2022-11-14T11:50:48.270Z,101766.34
2022-11-14T11:53:23.794Z,101769.34
2022-11-14T11:55:54.513Z,101757.75
2022-11-14T11:58:26.915Z,101751.25
2022-11-14T12:00:55.959Z,101756.72
2022-11-14T12:03:26.869Z,101756.06
2022-11-14T12:06:02.786Z,101756.34
2022-11-14T12:08:39.021Z,101758.28
2022-11-14T12:11:15.322Z,101751.66
2022-11-14T12:14:06.693Z,101752.38
2022-11-14T12:16:56.655Z,101753.72
2022-11-14T12:19:53.218Z,101754.56
2022-11-14T12:22:39.649Z,101746.09
2022-11-14T12:25:31.976Z,101745.66
2022-11-14T12:28:24.383Z,101719.09
2022-11-14T12:30:54.918Z,101750.34
2022-11-14T12:33:25.926Z,101750.34
2022-11-14T12:35:58.225Z,101749.84
2022-11-14T12:38:27.567Z,101750.50
2022-11-14T12:40:57.077Z,101746.19
2022-11-14T12:43:36.820Z,101742.09
2022-11-14T12:46:13.024Z,101747.19
2022-11-14T12:48:42.713Z,101748.66
2022-11-14T12:51:43.821Z,101746.63
2022-11-14T12:54:44.451Z,101737.03
2022-11-14T12:57:41.484Z,101748.59
2022-11-14T13:00:10.476Z,101741.88
2022-11-14T13:03:13.884Z,101735.34
2022-11-14T13:05:54.020Z,101738.38
2022-11-14T13:08:50.023Z,101738.97
2022-11-14T13:11:57.771Z,101736.78
2022-11-14T13:14:57.609Z,101737.94
2022-11-14T13:17:45.003Z,101740.31
2022-11-14T13:21:06.080Z,101737.88
2022-11-14T13:23:56.973Z,101737.41
2022-11-14T13:26:49.159Z,101737.03
2022-11-14T13:29:48.533Z,101734.75
2022-11-14T13:33:07.443Z,101730.88
2022-11-14T13:36:00.709Z,101739.47
2022-11-14T13:39:14.537Z,101741.06
2022-11-14T13:42:06.876Z,101734.31
2022-11-14T13:45:33.063Z,101734.38
2022-11-14T13:48:37.333Z,101725.06
2022-11-14T13:51:36.306Z,101728.34
2022-11-14T13:53:56.875Z,101724.75
2022-11-14T13:56:36.442Z,101719.19
2022-11-14T13:59:39.830Z,101728.41
2022-11-14T14:02:33.823Z,101716.75
2022-11-14T14:05:12.152Z,101722.47
2022-11-14T14:07:58.409Z,101716.47
2022-11-14T14:10:31.260Z,101715.19
2022-11-14T14:13:15.527Z,101711.22
2022-11-14T14:15:50.309Z,101712.91
2022-11-14T14:18:30.564Z,101693.22
2022-11-14T14:21:07.154Z,101696.72
2022-11-14T14:23:45.961Z,101706.72
2022-11-14T14:26:22.206Z,101703.69
2022-11-14T14:29:05.914Z,101700.19
2022-11-14T14:31:39.111Z,101709.75
2022-11-14T14:34:22.708Z,101696.22
2022-11-14T14:36:54.374Z,101704.91
2022-11-14T14:39:25.298Z,101706.50
2022-11-14T14:41:55.885Z,101697.56
2022-11-14T14:44:27.700Z,101695.66
2022-11-14T14:46:57.225Z,101700.59
2022-11-14T14:49:29.594Z,101701.44
2022-11-14T14:51:58.854Z,101694.66
2022-11-14T14:54:29.501Z,101694.44
2022-11-14T14:57:00.431Z,101697.94
2022-11-14T14:59:30.289Z,101681.50
2022-11-14T15:02:00.097Z,101690.38
2022-11-14T15:04:29.507Z,101684.53
2022-11-14T15:06:58.507Z,101687.28
2022-11-14T15:09:29.773Z,101685.50
2022-11-14T15:12:00.281Z,101685.28
2022-11-14T15:14:31.657Z,101686.59
2022-11-14T15:17:01.469Z,101696.50
2022-11-14T15:19:38.195Z,101696.97
2022-11-14T15:22:21.740Z,101691.41
2022-11-14T15:25:08.278Z,101700.47
2022-11-14T15:27:48.835Z,101694.19
2022-11-14T15:30:25.238Z,101700.00
2022-11-14T15:32:55.905Z,101692.56
2022-11-14T15:35:30.761Z,101694.66
2022-11-14T15:38:36.680Z,101688.88
2022-11-14T15:41:12.146Z,101697.88
2022-11-14T15:43:50.581Z,101695.84
2022-11-14T15:46:44.144Z,101689.59
2022-11-14T15:49:22.632Z,101697.97
2022-11-14T15:51:53.299Z,101684.84
2022-11-14T15:54:29.453Z,101697.47
2022-11-14T15:56:59.296Z,101703.59
2022-11-14T15:59:28.796Z,101704.44
2022-11-14T16:02:00.433Z,101709.53
2022-11-14T16:04:34.440Z,101704.81
2022-11-14T16:07:02.420Z,101702.66
2022-11-14T16:09:30.401Z,101702.41
2022-11-14T16:11:58.375Z,101696.97
2022-11-14T16:14:26.304Z,101697.56
2022-11-14T16:16:54.258Z,101699.97
2022-11-14T16:19:23.065Z,101696.53
2022-11-14T16:21:52.492Z,101700.97
2022-11-14T16:24:22.117Z,101698.19
2022-11-14T16:26:50.966Z,101698.75
2022-11-14T16:29:18.900Z,101698.41
2022-11-14T16:31:47.468Z,101690.91
2022-11-14T16:34:19.320Z,101696.94
2022-11-14T16:36:48.737Z,101698.19
2022-11-14T16:39:18.443Z,101699.63
2022-11-14T16:41:46.377Z,101699.59
2022-11-14T16:44:17.176Z,101686.94
2022-11-14T16:46:46.049Z,101692.06
2022-11-14T16:49:15.611Z,101696.69
2022-11-14T16:51:48.305Z,101691.38
2022-11-14T16:54:19.316Z,101697.16
2022-11-14T16:56:47.643Z,101694.91
2022-11-14T16:59:15.746Z,101692.75
2022-11-14T17:01:43.938Z,101690.03
2022-11-14T17:04:12.683Z,101691.78
2022-11-14T17:06:40.634Z,101685.84
2022-11-14T17:09:08.664Z,101692.31
2022-11-14T17:11:37.972Z,101693.22
2022-11-14T17:14:05.945Z,101685.31
2022-11-14T17:16:34.085Z,101691.16
2022-11-14T17:19:02.228Z,101687.84
2022-11-14T17:21:30.201Z,101667.72
2022-11-14T17:24:01.454Z,101692.13
2022-11-14T17:26:30.196Z,101689.06
2022-11-14T17:28:59.539Z,101645.91
2022-11-14T17:31:27.480Z,101688.03
2022-11-14T17:33:57.014Z,101686.69
2022-11-14T17:36:26.308Z,101689.72
2022-11-14T17:38:55.006Z,101695.25
2022-11-14T17:41:23.553Z,101691.66
2022-11-14T17:43:54.058Z,101690.63
2022-11-14T17:46:24.274Z,101686.88
2022-11-14T17:48:52.213Z,101676.06
2022-11-14T17:51:20.210Z,101677.59
2022-11-14T17:53:48.153Z,101680.06
2022-11-14T17:56:18.265Z,101688.75
2022-11-14T17:58:46.967Z,101677.16
2022-11-14T18:01:17.227Z,101689.03
2022-11-14T18:03:46.610Z,101684.44
2022-11-14T18:06:16.165Z,101676.31
2022-11-14T18:08:44.086Z,101679.72
2022-11-14T18:11:13.746Z,101680.50
2022-11-14T18:13:42.454Z,101677.13
2022-11-14T18:16:13.090Z,101667.38
2022-11-14T18:18:41.399Z,101673.31
2022-11-14T18:21:13.836Z,101677.34
2022-11-14T18:23:42.014Z,101676.59
2022-11-14T18:26:11.176Z,101679.66
2022-11-14T18:28:39.194Z,101688.94
2022-11-14T18:31:10.868Z,101687.25
2022-11-14T18:33:39.313Z,101671.50
2022-11-14T18:36:09.812Z,101687.44
2022-11-14T18:38:39.404Z,101689.59
2022-11-14T18:41:10.035Z,101682.50
2022-11-14T18:43:38.012Z,101684.34
2022-11-14T18:46:08.160Z,101687.56
2022-11-14T18:48:37.316Z,101680.97
2022-11-14T18:51:07.885Z,101682.09
2022-11-14T18:53:38.105Z,101690.09
2022-11-14T18:56:06.724Z,101625.59
2022-11-14T18:58:36.109Z,101688.72
2022-11-14T19:01:11.347Z,101682.75
2022-11-14T19:03:39.369Z,101685.22
2022-11-14T19:06:08.824Z,101681.06
2022-11-14T19:08:38.321Z,101690.00
2022-11-14T19:11:07.990Z,101682.22
2022-11-14T19:13:36.395Z,101681.47
2022-11-14T19:16:04.937Z,101686.59
2022-11-14T19:18:33.630Z,101687.28
2022-11-14T19:21:03.501Z,101683.09
2022-11-14T19:23:31.789Z,101665.69
2022-11-14T19:26:02.688Z,101676.06
2022-11-14T19:28:30.713Z,101676.63
2022-11-14T19:31:03.077Z,101683.84
2022-11-14T19:33:31.462Z,101675.72
2022-11-14T19:36:00.098Z,101680.03
2022-11-14T19:38:28.037Z,101678.78
2022-11-14T19:40:58.600Z,101674.56
2022-11-14T19:43:30.418Z,101673.91
2022-11-14T19:46:02.228Z,101665.81
2022-11-14T19:48:30.289Z,101666.66
2022-11-14T19:51:03.493Z,101666.84
2022-11-14T19:53:34.032Z,101671.66
2022-11-14T19:56:02.900Z,101666.09
2022-11-14T19:58:32.361Z,101668.38
2022-11-14T20:01:04.432Z,101666.03
2022-11-14T20:03:32.946Z,101661.41
2022-11-14T20:06:01.413Z,101665.28
2022-11-14T20:08:29.573Z,101656.63
2022-11-14T20:10:59.495Z,101660.22
2022-11-14T20:13:30.706Z,101662.69
2022-11-14T20:16:00.939Z,101660.22
2022-11-14T20:18:31.317Z,101672.88
2022-11-14T20:21:03.869Z,101654.28
2022-11-14T20:23:32.296Z,101658.41
2022-11-14T20:26:00.605Z,101665.91
2022-11-14T20:28:28.660Z,101662.78
2022-11-14T20:30:56.797Z,101654.88
2022-11-14T20:33:26.203Z,101666.19
2022-11-14T20:35:54.281Z,101663.47
2022-11-14T20:38:22.318Z,101660.91
2022-11-14T20:40:55.038Z,101662.34
2022-11-14T20:43:23.100Z,101658.63
2022-11-14T20:45:58.835Z,101660.31
2022-11-14T20:48:29.803Z,101663.38
2022-11-14T20:51:03.649Z,101659.09
2022-11-14T20:53:32.300Z,101661.69
2022-11-14T20:56:01.265Z,101661.44
2022-11-14T20:58:29.509Z,101665.13
2022-11-14T21:00:57.627Z,101665.84
2022-11-14T21:03:26.051Z,101665.06
2022-11-14T21:05:56.389Z,101662.84
2022-11-14T21:08:24.344Z,101656.69
2022-11-14T21:10:59.566Z,101653.69
2022-11-14T21:13:45.733Z,101650.03
2022-11-14T21:16:15.557Z,101653.84
2022-11-14T21:18:47.753Z,101648.72
2022-11-14T21:21:23.564Z,101634.63
2022-11-14T21:23:52.050Z,101642.97
2022-11-14T21:26:21.966Z,101640.94
2022-11-14T21:28:51.781Z,101634.88
2022-11-14T21:31:21.365Z,101641.78
2022-11-14T21:33:51.064Z,101641.84
2022-11-14T21:39:14.918Z,101637.66
2022-11-14T21:41:44.363Z,101642.31
2022-11-14T21:44:14.761Z,101641.28
2022-11-14T21:46:42.947Z,101637.78
2022-11-14T21:49:11.267Z,101634.16
2022-11-14T21:51:40.559Z,101637.22
2022-11-14T21:54:08.593Z,101635.41
2022-11-14T21:56:38.078Z,101630.00
2022-11-14T21:59:18.445Z,101613.78
2022-11-14T22:02:05.902Z,101618.47
2022-11-14T22:04:34.573Z,101614.00
2022-11-14T22:07:06.528Z,101611.13
2022-11-14T22:09:34.955Z,101606.63
2022-11-14T22:12:03.262Z,101605.34
2022-11-14T22:14:31.190Z,101603.50
2022-11-14T22:16:59.238Z,101597.88
2022-11-14T22:19:27.299Z,101593.78
2022-11-14T22:21:55.417Z,101585.97
2022-11-14T22:24:24.877Z,101594.09
2022-11-14T22:26:52.817Z,101594.72
2022-11-14T22:29:20.729Z,101589.50
2022-11-14T22:31:48.659Z,101590.28
2022-11-14T22:34:16.734Z,101585.50
2022-11-14T22:36:44.674Z,101593.88
2022-11-14T22:39:12.602Z,101585.63
2022-11-14T22:41:41.923Z,101568.88
2022-11-14T22:44:09.894Z,101567.19
2022-11-14T22:46:37.821Z,101563.88
2022-11-14T22:49:05.769Z,101556.94
2022-11-14T22:51:33.746Z,101563.25
2022-11-14T22:54:01.675Z,101572.44
2022-11-14T22:56:30.583Z,101562.38
2022-11-14T22:59:01.462Z,101570.69
2022-11-14T23:01:31.338Z,101565.69
2022-11-14T23:04:01.206Z,101562.66
2022-11-14T23:06:31.025Z,101564.66
2022-11-14T23:08:59.534Z,101554.78
2022-11-14T23:11:30.068Z,101568.44
2022-11-14T23:14:01.090Z,101562.16
2022-11-14T23:16:31.022Z,101555.78
2022-11-14T23:19:01.170Z,101550.00
2022-11-14T23:21:31.255Z,101549.59
2022-11-14T23:24:01.180Z,101559.72
2022-11-14T23:26:31.145Z,101552.34
2022-11-14T23:29:00.816Z,101547.66
2022-11-14T23:31:29.416Z,101536.09
2022-11-14T23:33:58.936Z,101545.63
2022-11-14T23:36:26.865Z,101547.66
2022-11-14T23:38:55.118Z,101536.25
2022-11-14T23:41:25.474Z,101549.47
2022-11-14T23:43:53.711Z,101537.66
2022-11-14T23:46:23.056Z,101537.19
2022-11-14T23:48:53.430Z,101537.38
2022-11-14T23:51:21.640Z,101529.13
2022-11-14T23:53:49.577Z,101531.97
2022-11-14T23:56:17.517Z,101521.75
2022-11-14T23:58:45.596Z,101526.47
